Rocky Grove, Pennsylvania
Current Conditions -  °F | °C
As of 11:15 AM on Friday 24 Oct 2014 (Local Time) from KFKL Reporting Station
Overcast Overcast  
Wind Chill: 43°   Ceiling: 400
Heat Index: 46°   Visibility: 6mi
Dew Point: 43°   Wind: 7mph
Humidity: 87%   Direction: 260°W
Pressure: 30.09"   Gusts: NA
Location:  41.4663°N, 79.8305°W
Report Text: KFKL 241515Z 26006KT 6SM OVC004 08/06 A3009 RMK AO1
Loading
Personal Weather Stations






























Interactive Weather Map New forecast layout! Learn more

10-Day Weather Forecast

Advertisements
Track Severe Weather on mobile